sensor_id;sensor_type;location;lat;lon;timestamp;pressure;altitude;pressure_sealevel;temperature;humidity
57000;BME280;42891;50.006;21.964;2023-12-29T00:03:35;51136.94;;;-146.02;71.83
57000;BME280;42891;50.006;21.964;2023-12-29T00:07:35;51134.94;;;-146.02;71.93
57000;BME280;42891;50.006;21.964;2023-12-29T00:11:35;51108.88;;;-146.02;71.76
57000;BME280;42891;50.006;21.964;2023-12-29T00:15:36;51142.97;;;-146.02;71.73
57000;BME280;42891;50.006;21.964;2023-12-29T00:19:36;51128.94;;;-146.02;71.36
57000;BME280;42891;50.006;21.964;2023-12-29T00:23:37;51102.88;;;-146.02;71.36
57000;BME280;42891;50.006;21.964;2023-12-29T00:27:37;51171.00;;;-146.02;71.44
57000;BME280;42891;50.006;21.964;2023-12-29T00:31:38;51124.91;;;-146.02;71.50
57000;BME280;42891;50.006;21.964;2023-12-29T00:35:38;51132.94;;;-146.02;71.31
57000;BME280;42891;50.006;21.964;2023-12-29T00:39:41;51122.91;;;-146.02;71.03
57000;BME280;42891;50.006;21.964;2023-12-29T00:43:42;51144.97;;;-146.02;70.88
57000;BME280;42891;50.006;21.964;2023-12-29T00:47:42;51108.88;;;-146.02;70.95
57000;BME280;42891;50.006;21.964;2023-12-29T00:51:43;51118.91;;;-146.02;70.54
57000;BME280;42891;50.006;21.964;2023-12-29T00:55:43;51118.91;;;-146.02;71.00
57000;BME280;42891;50.006;21.964;2023-12-29T00:59:46;51106.88;;;-146.02;70.83
57000;BME280;42891;50.006;21.964;2023-12-29T01:03:46;51120.91;;;-146.02;71.06
57000;BME280;42891;50.006;21.964;2023-12-29T01:07:47;51134.94;;;-146.02;71.08
57000;BME280;42891;50.006;21.964;2023-12-29T01:11:47;51126.94;;;-146.02;71.23
57000;BME280;42891;50.006;21.964;2023-12-29T01:15:47;51122.91;;;-146.02;71.54
57000;BME280;42891;50.006;21.964;2023-12-29T01:19:47;51118.91;;;-146.02;71.49
57000;BME280;42891;50.006;21.964;2023-12-29T01:23:48;51104.88;;;-146.02;70.93
57000;BME280;42891;50.006;21.964;2023-12-29T01:27:48;51130.94;;;-146.02;70.81
57000;BME280;42891;50.006;21.964;2023-12-29T01:31:48;51104.88;;;-146.02;71.27
57000;BME280;42891;50.006;21.964;2023-12-29T01:35:49;51108.88;;;-146.02;71.60
57000;BME280;42891;50.006;21.964;2023-12-29T01:39:49;51130.94;;;-146.02;71.92
57000;BME280;42891;50.006;21.964;2023-12-29T01:48:02;51122.91;;;-146.02;72.45
57000;BME280;42891;50.006;21.964;2023-12-29T01:52:03;51108.88;;;-146.02;72.39
57000;BME280;42891;50.006;21.964;2023-12-29T01:56:03;51140.94;;;-146.02;72.56
57000;BME280;42891;50.006;21.964;2023-12-29T02:00:05;51136.94;;;-146.02;72.82
57000;BME280;42891;50.006;21.964;2023-12-29T02:04:06;51120.91;;;-146.02;73.02
57000;BME280;42891;50.006;21.964;2023-12-29T02:08:07;51120.91;;;-146.02;73.35
57000;BME280;42891;50.006;21.964;2023-12-29T02:12:07;51102.88;;;-146.02;73.17
57000;BME280;42891;50.006;21.964;2023-12-29T02:20:41;51086.84;;;-146.02;73.97
57000;BME280;42891;50.006;21.964;2023-12-29T02:24:50;51136.94;;;-146.02;73.95
57000;BME280;42891;50.006;21.964;2023-12-29T02:28:57;51165.00;;;-146.02;73.37
57000;BME280;42891;50.006;21.964;2023-12-29T02:33:01;51114.91;;;-146.02;73.24
57000;BME280;42891;50.006;21.964;2023-12-29T02:37:04;51108.88;;;-146.02;73.04
57000;BME280;42891;50.006;21.964;2023-12-29T02:41:05;51120.91;;;-146.02;73.80
57000;BME280;42891;50.006;21.964;2023-12-29T02:45:06;51146.97;;;-146.02;74.03
57000;BME280;42891;50.006;21.964;2023-12-29T02:49:07;51128.94;;;-146.02;73.84
57000;BME280;42891;50.006;21.964;2023-12-29T02:53:11;51130.94;;;-146.02;73.81
57000;BME280;42891;50.006;21.964;2023-12-29T02:57:11;51134.94;;;-146.02;74.46
57000;BME280;42891;50.006;21.964;2023-12-29T03:01:12;51106.88;;;-146.02;74.86
57000;BME280;42891;50.006;21.964;2023-12-29T03:05:12;51114.91;;;-146.02;75.23
57000;BME280;42891;50.006;21.964;2023-12-29T03:09:12;51112.91;;;-146.02;75.04
57000;BME280;42891;50.006;21.964;2023-12-29T03:13:13;51100.88;;;-146.02;75.45
57000;BME280;42891;50.006;21.964;2023-12-29T03:17:13;51136.94;;;-146.02;75.75
57000;BME280;42891;50.006;21.964;2023-12-29T03:21:13;51161.00;;;-146.02;75.46
57000;BME280;42891;50.006;21.964;2023-12-29T03:25:14;51090.84;;;-146.02;75.58
57000;BME280;42891;50.006;21.964;2023-12-29T03:29:14;51122.91;;;-146.02;75.48
57000;BME280;42891;50.006;21.964;2023-12-29T03:33:15;51140.94;;;-146.02;76.34
57000;BME280;42891;50.006;21.964;2023-12-29T03:37:15;51114.91;;;-146.02;76.69
57000;BME280;42891;50.006;21.964;2023-12-29T03:41:15;51169.00;;;-146.02;76.68
57000;BME280;42891;50.006;21.964;2023-12-29T03:45:16;51130.94;;;-146.02;76.63
57000;BME280;42891;50.006;21.964;2023-12-29T03:49:16;51138.94;;;-146.02;76.96
57000;BME280;42891;50.006;21.964;2023-12-29T03:53:16;51158.97;;;-146.02;77.88
57000;BME280;42891;50.006;21.964;2023-12-29T03:57:16;51126.94;;;-146.02;78.36
57000;BME280;42891;50.006;21.964;2023-12-29T04:01:17;51132.94;;;-146.02;79.22
57000;BME280;42891;50.006;21.964;2023-12-29T04:05:17;51177.03;;;-146.02;78.98
57000;BME280;42891;50.006;21.964;2023-12-29T04:09:18;51114.91;;;-146.02;78.93
57000;BME280;42891;50.006;21.964;2023-12-29T04:13:18;51138.94;;;-146.02;79.34
57000;BME280;42891;50.006;21.964;2023-12-29T04:17:18;51098.88;;;-146.02;79.29
57000;BME280;42891;50.006;21.964;2023-12-29T04:21:19;51110.91;;;-146.02;78.98
57000;BME280;42891;50.006;21.964;2023-12-29T04:25:19;51156.97;;;-146.02;78.82
57000;BME280;42891;50.006;21.964;2023-12-29T04:29:19;51124.91;;;-146.02;79.47
57000;BME280;42891;50.006;21.964;2023-12-29T04:33:19;51146.97;;;-146.02;79.14
57000;BME280;42891;50.006;21.964;2023-12-29T04:37:20;51144.97;;;-146.02;78.49
57000;BME280;42891;50.006;21.964;2023-12-29T04:41:20;51161.00;;;-146.02;78.97
57000;BME280;42891;50.006;21.964;2023-12-29T04:45:20;51118.91;;;-146.02;78.82
57000;BME280;42891;50.006;21.964;2023-12-29T04:49:21;51171.00;;;-146.02;78.38
57000;BME280;42891;50.006;21.964;2023-12-29T04:53:21;51167.00;;;-146.02;78.08
57000;BME280;42891;50.006;21.964;2023-12-29T04:57:21;51120.91;;;-146.02;78.14
57000;BME280;42891;50.006;21.964;2023-12-29T05:01:21;51112.91;;;-146.02;78.25
57000;BME280;42891;50.006;21.964;2023-12-29T05:05:22;51102.88;;;-146.02;77.81
57000;BME280;42891;50.006;21.964;2023-12-29T05:09:22;51132.94;;;-146.02;77.81
57000;BME280;42891;50.006;21.964;2023-12-29T05:13:22;51140.94;;;-146.02;77.81
57000;BME280;42891;50.006;21.964;2023-12-29T05:17:23;51122.91;;;-146.02;77.66
57000;BME280;42891;50.006;21.964;2023-12-29T05:21:23;51112.91;;;-146.02;77.46
57000;BME280;42891;50.006;21.964;2023-12-29T05:25:24;51110.91;;;-146.02;77.11
57000;BME280;42891;50.006;21.964;2023-12-29T05:29:26;51173.00;;;-146.02;77.23
57000;BME280;42891;50.006;21.964;2023-12-29T05:33:26;51108.88;;;-146.02;77.69
57000;BME280;42891;50.006;21.964;2023-12-29T05:37:26;51140.94;;;-146.02;77.29
57000;BME280;42891;50.006;21.964;2023-12-29T05:41:26;51144.97;;;-146.02;77.73
57000;BME280;42891;50.006;21.964;2023-12-29T05:45:27;51140.94;;;-146.02;77.85
57000;BME280;42891;50.006;21.964;2023-12-29T05:49:27;51120.91;;;-146.02;77.42
57000;BME280;42891;50.006;21.964;2023-12-29T05:53:28;51134.94;;;-146.02;77.65
57000;BME280;42891;50.006;21.964;2023-12-29T05:57:28;51148.97;;;-146.02;77.69
57000;BME280;42891;50.006;21.964;2023-12-29T06:01:28;51152.97;;;-146.02;77.57
57000;BME280;42891;50.006;21.964;2023-12-29T06:05:29;51120.91;;;-146.02;77.23
57000;BME280;42891;50.006;21.964;2023-12-29T06:09:30;51080.84;;;-146.02;76.37
57000;BME280;42891;50.006;21.964;2023-12-29T06:13:30;51140.94;;;-146.02;76.54
57000;BME280;42891;50.006;21.964;2023-12-29T06:17:30;51134.94;;;-146.02;76.78
57000;BME280;42891;50.006;21.964;2023-12-29T06:21:31;51124.91;;;-146.02;76.34
57000;BME280;42891;50.006;21.964;2023-12-29T06:25:31;51156.97;;;-146.02;76.48
57000;BME280;42891;50.006;21.964;2023-12-29T06:29:33;51144.97;;;-146.02;76.64
57000;BME280;42891;50.006;21.964;2023-12-29T06:33:33;51152.97;;;-146.02;76.64
57000;BME280;42891;50.006;21.964;2023-12-29T06:37:33;51144.97;;;-146.02;76.98
57000;BME280;42891;50.006;21.964;2023-12-29T06:41:34;51130.94;;;-146.02;77.27
57000;BME280;42891;50.006;21.964;2023-12-29T06:45:34;51165.00;;;-146.02;77.63
57000;BME280;42891;50.006;21.964;2023-12-29T06:49:35;51156.97;;;-146.02;78.19
57000;BME280;42891;50.006;21.964;2023-12-29T06:53:35;51144.97;;;-146.02;77.74
57000;BME280;42891;50.006;21.964;2023-12-29T06:57:36;51126.94;;;-146.02;77.65
57000;BME280;42891;50.006;21.964;2023-12-29T07:01:38;51140.94;;;-146.02;78.10
57000;BME280;42891;50.006;21.964;2023-12-29T07:05:40;51120.91;;;-146.02;77.96
57000;BME280;42891;50.006;21.964;2023-12-29T07:09:40;51146.97;;;-146.02;77.71
57000;BME280;42891;50.006;21.964;2023-12-29T07:13:41;51152.97;;;-146.02;77.40
57000;BME280;42891;50.006;21.964;2023-12-29T07:17:41;51193.06;;;-146.02;76.53
57000;BME280;42891;50.006;21.964;2023-12-29T07:21:42;51122.91;;;-146.02;76.30
57000;BME280;42891;50.006;21.964;2023-12-29T07:25:42;51128.94;;;-146.02;76.40
57000;BME280;42891;50.006;21.964;2023-12-29T07:29:42;51158.97;;;-146.02;75.50
57000;BME280;42891;50.006;21.964;2023-12-29T07:33:43;51142.97;;;-146.02;75.94
57000;BME280;42891;50.006;21.964;2023-12-29T07:37:44;51195.06;;;-146.02;76.30
57000;BME280;42891;50.006;21.964;2023-12-29T07:41:44;51163.00;;;-146.02;76.03
57000;BME280;42891;50.006;21.964;2023-12-29T07:45:45;51134.94;;;-146.02;76.42
57000;BME280;42891;50.006;21.964;2023-12-29T07:49:45;51140.94;;;-146.02;76.16
57000;BME280;42891;50.006;21.964;2023-12-29T07:53:45;51146.97;;;-146.02;75.39
57000;BME280;42891;50.006;21.964;2023-12-29T07:57:46;51122.91;;;-146.02;75.13
57000;BME280;42891;50.006;21.964;2023-12-29T08:01:47;51124.91;;;-146.02;75.37
57000;BME280;42891;50.006;21.964;2023-12-29T08:05:47;51122.91;;;-146.02;74.74
57000;BME280;42891;50.006;21.964;2023-12-29T08:09:47;51150.97;;;-146.02;74.09
57000;BME280;42891;50.006;21.964;2023-12-29T08:13:48;51140.94;;;-146.02;74.41
57000;BME280;42891;50.006;21.964;2023-12-29T08:17:49;51171.00;;;-146.02;73.73
57000;BME280;42891;50.006;21.964;2023-12-29T08:21:50;51146.97;;;-146.02;73.51
57000;BME280;42891;50.006;21.964;2023-12-29T08:25:50;51148.97;;;-146.02;73.76
57000;BME280;42891;50.006;21.964;2023-12-29T08:29:51;51144.97;;;-146.02;73.65
57000;BME280;42891;50.006;21.964;2023-12-29T08:33:51;51114.91;;;-146.02;73.36
57000;BME280;42891;50.006;21.964;2023-12-29T08:37:52;51130.94;;;-146.02;73.03
57000;BME280;42891;50.006;21.964;2023-12-29T08:41:52;51120.91;;;-146.02;72.80
57000;BME280;42891;50.006;21.964;2023-12-29T08:45:52;51114.91;;;-146.02;72.80
57000;BME280;42891;50.006;21.964;2023-12-29T08:49:53;51148.97;;;-146.02;72.47
57000;BME280;42891;50.006;21.964;2023-12-29T08:53:54;51138.94;;;-146.02;72.40
57000;BME280;42891;50.006;21.964;2023-12-29T08:57:54;51140.94;;;-146.02;72.62
57000;BME280;42891;50.006;21.964;2023-12-29T09:01:55;51146.97;;;-146.02;72.50
57000;BME280;42891;50.006;21.964;2023-12-29T09:05:55;51144.97;;;-146.02;72.96
57000;BME280;42891;50.006;21.964;2023-12-29T09:09:57;51122.91;;;-146.02;73.03
57000;BME280;42891;50.006;21.964;2023-12-29T09:13:57;51140.94;;;-146.02;73.04
57000;BME280;42891;50.006;21.964;2023-12-29T09:17:57;51163.00;;;-146.02;73.05
57000;BME280;42891;50.006;21.964;2023-12-29T09:21:58;51165.00;;;-146.02;74.22
57000;BME280;42891;50.006;21.964;2023-12-29T09:25:58;51156.97;;;-146.02;74.79
57000;BME280;42891;50.006;21.964;2023-12-29T09:29:58;51144.97;;;-146.02;74.41
57000;BME280;42891;50.006;21.964;2023-12-29T09:33:59;51156.97;;;-146.02;74.71
57000;BME280;42891;50.006;21.964;2023-12-29T09:38:00;51148.97;;;-146.02;74.06
57000;BME280;42891;50.006;21.964;2023-12-29T09:42:03;51140.94;;;-146.02;74.00
57000;BME280;42891;50.006;21.964;2023-12-29T09:46:04;51138.94;;;-146.02;74.06
57000;BME280;42891;50.006;21.964;2023-12-29T09:50:12;51181.03;;;-146.02;74.04
57000;BME280;42891;50.006;21.964;2023-12-29T09:54:13;51158.97;;;-146.02;73.53
57000;BME280;42891;50.006;21.964;2023-12-29T09:58:14;51171.00;;;-146.02;73.40
57000;BME280;42891;50.006;21.964;2023-12-29T10:02:15;51167.00;;;-146.02;72.86
57000;BME280;42891;50.006;21.964;2023-12-29T10:06:20;51134.94;;;-146.02;72.74
57000;BME280;42891;50.006;21.964;2023-12-29T10:10:23;51144.97;;;-146.02;72.47
57000;BME280;42891;50.006;21.964;2023-12-29T10:14:31;51132.94;;;-146.02;72.74
57000;BME280;42891;50.006;21.964;2023-12-29T10:18:42;51136.94;;;-146.02;72.60
57000;BME280;42891;50.006;21.964;2023-12-29T10:23:06;51124.91;;;-146.02;72.31
57000;BME280;42891;50.006;21.964;2023-12-29T10:27:08;51128.94;;;-146.02;72.27
57000;BME280;42891;50.006;21.964;2023-12-29T10:31:14;51163.00;;;-146.02;72.36
57000;BME280;42891;50.006;21.964;2023-12-29T10:35:15;51118.91;;;-146.02;73.01
57000;BME280;42891;50.006;21.964;2023-12-29T10:39:15;51138.94;;;-146.02;73.15
57000;BME280;42891;50.006;21.964;2023-12-29T10:43:22;51140.94;;;-146.02;73.49
57000;BME280;42891;50.006;21.964;2023-12-29T10:47:24;51134.94;;;-146.02;72.69
57000;BME280;42891;50.006;21.964;2023-12-29T10:51:28;51175.00;;;-146.02;72.67
57000;BME280;42891;50.006;21.964;2023-12-29T10:55:31;51144.97;;;-146.02;72.54
57000;BME280;42891;50.006;21.964;2023-12-29T10:59:32;51136.94;;;-146.02;72.03
57000;BME280;42891;50.006;21.964;2023-12-29T11:03:32;51124.91;;;-146.02;71.85
57000;BME280;42891;50.006;21.964;2023-12-29T11:07:40;51158.97;;;-146.02;71.58
57000;BME280;42891;50.006;21.964;2023-12-29T11:11:41;51169.00;;;-146.02;70.50
57000;BME280;42891;50.006;21.964;2023-12-29T11:15:45;51140.94;;;-146.02;70.14
57000;BME280;42891;50.006;21.964;2023-12-29T11:19:46;51134.94;;;-146.02;69.68
57000;BME280;42891;50.006;21.964;2023-12-29T11:23:49;51173.00;;;-146.02;69.69
57000;BME280;42891;50.006;21.964;2023-12-29T11:27:50;51128.94;;;-146.02;68.72
57000;BME280;42891;50.006;21.964;2023-12-29T11:31:53;51130.94;;;-146.02;68.45
57000;BME280;42891;50.006;21.964;2023-12-29T11:36:25;51128.94;;;-146.02;68.01
57000;BME280;42891;50.006;21.964;2023-12-29T11:40:48;51167.00;;;-146.02;67.58
57000;BME280;42891;50.006;21.964;2023-12-29T11:44:50;51120.91;;;-146.02;66.70
57000;BME280;42891;50.006;21.964;2023-12-29T11:48:57;51136.94;;;-146.02;66.74
57000;BME280;42891;50.006;21.964;2023-12-29T11:52:59;51116.91;;;-146.02;66.69
57000;BME280;42891;50.006;21.964;2023-12-29T11:56:59;51124.91;;;-146.02;66.20
57000;BME280;42891;50.006;21.964;2023-12-29T12:00:59;51140.94;;;-146.02;65.13
57000;BME280;42891;50.006;21.964;2023-12-29T12:05:00;51080.84;;;-146.02;65.11
57000;BME280;42891;50.006;21.964;2023-12-29T12:09:22;51130.94;;;-146.02;63.92
57000;BME280;42891;50.006;21.964;2023-12-29T12:13:45;51128.94;;;-146.02;63.81
57000;BME280;42891;50.006;21.964;2023-12-29T12:17:50;51179.03;;;-146.02;63.65
57000;BME280;42891;50.006;21.964;2023-12-29T12:21:53;51114.91;;;-146.02;63.12
57000;BME280;42891;50.006;21.964;2023-12-29T12:25:57;51102.88;;;-146.02;63.38
57000;BME280;42891;50.006;21.964;2023-12-29T12:29:59;51140.94;;;-146.02;63.72
57000;BME280;42891;50.006;21.964;2023-12-29T12:34:00;51128.94;;;-146.02;63.77
57000;BME280;42891;50.006;21.964;2023-12-29T12:38:10;51126.94;;;-146.02;64.33
57000;BME280;42891;50.006;21.964;2023-12-29T12:42:11;51088.84;;;-146.02;64.02
57000;BME280;42891;50.006;21.964;2023-12-29T12:46:13;51098.88;;;-146.02;64.05
57000;BME280;42891;50.006;21.964;2023-12-29T12:50:14;51154.97;;;-146.02;63.98
57000;BME280;42891;50.006;21.964;2023-12-29T12:54:18;51173.00;;;-146.02;64.11
57000;BME280;42891;50.006;21.964;2023-12-29T12:58:21;51120.91;;;-146.02;63.68
57000;BME280;42891;50.006;21.964;2023-12-29T13:02:22;51108.88;;;-146.02;63.58
57000;BME280;42891;50.006;21.964;2023-12-29T13:06:23;51167.00;;;-146.02;64.18
57000;BME280;42891;50.006;21.964;2023-12-29T13:10:24;51122.91;;;-146.02;63.64
57000;BME280;42891;50.006;21.964;2023-12-29T13:14:24;51108.88;;;-146.02;64.24
57000;BME280;42891;50.006;21.964;2023-12-29T13:18:29;51120.91;;;-146.02;63.91
57000;BME280;42891;50.006;21.964;2023-12-29T13:22:30;51052.78;;;-146.02;63.69
57000;BME280;42891;50.006;21.964;2023-12-29T13:26:30;51110.91;;;-146.02;62.64
57000;BME280;42891;50.006;21.964;2023-12-29T13:30:30;51098.88;;;-146.02;62.19
57000;BME280;42891;50.006;21.964;2023-12-29T13:34:39;51142.97;;;-146.02;61.29
57000;BME280;42891;50.006;21.964;2023-12-29T13:38:44;51088.84;;;-146.02;60.92
57000;BME280;42891;50.006;21.964;2023-12-29T13:42:50;51102.88;;;-146.02;60.35
57000;BME280;42891;50.006;21.964;2023-12-29T13:46:54;51120.91;;;-146.02;60.22
57000;BME280;42891;50.006;21.964;2023-12-29T13:50:55;51132.94;;;-146.02;61.81
57000;BME280;42891;50.006;21.964;2023-12-29T13:54:55;51100.88;;;-146.02;61.70
57000;BME280;42891;50.006;21.964;2023-12-29T13:58:56;51110.91;;;-146.02;61.81
57000;BME280;42891;50.006;21.964;2023-12-29T14:03:02;51126.94;;;-146.02;62.24
57000;BME280;42891;50.006;21.964;2023-12-29T14:07:07;51144.97;;;-146.02;63.25
57000;BME280;42891;50.006;21.964;2023-12-29T14:11:10;51142.97;;;-146.02;64.90
57000;BME280;42891;50.006;21.964;2023-12-29T14:15:10;51122.91;;;-146.02;65.84
57000;BME280;42891;50.006;21.964;2023-12-29T14:19:10;51156.97;;;-146.02;66.79
57000;BME280;42891;50.006;21.964;2023-12-29T14:23:11;51146.97;;;-146.02;67.16
57000;BME280;42891;50.006;21.964;2023-12-29T14:27:11;51110.91;;;-146.02;67.62
57000;BME280;42891;50.006;21.964;2023-12-29T14:31:12;51120.91;;;-146.02;68.27
57000;BME280;42891;50.006;21.964;2023-12-29T14:35:12;51126.94;;;-146.02;68.31
57000;BME280;42891;50.006;21.964;2023-12-29T14:39:13;51120.91;;;-146.02;69.58
57000;BME280;42891;50.006;21.964;2023-12-29T14:43:13;51144.97;;;-146.02;70.27
57000;BME280;42891;50.006;21.964;2023-12-29T14:47:15;51134.94;;;-146.02;71.08
57000;BME280;42891;50.006;21.964;2023-12-29T14:51:16;51158.97;;;-146.02;71.71
57000;BME280;42891;50.006;21.964;2023-12-29T14:55:16;51128.94;;;-146.02;72.16
57000;BME280;42891;50.006;21.964;2023-12-29T14:59:17;51088.84;;;-146.02;72.83
57000;BME280;42891;50.006;21.964;2023-12-29T15:03:17;51118.91;;;-146.02;73.44
57000;BME280;42891;50.006;21.964;2023-12-29T15:07:19;51122.91;;;-146.02;74.34
57000;BME280;42891;50.006;21.964;2023-12-29T15:11:20;51144.97;;;-146.02;73.98
57000;BME280;42891;50.006;21.964;2023-12-29T15:15:20;51152.97;;;-146.02;73.98
57000;BME280;42891;50.006;21.964;2023-12-29T15:19:20;51169.00;;;-146.02;74.72
57000;BME280;42891;50.006;21.964;2023-12-29T15:23:21;51148.97;;;-146.02;75.08
57000;BME280;42891;50.006;21.964;2023-12-29T15:27:23;51163.00;;;-146.02;74.74
57000;BME280;42891;50.006;21.964;2023-12-29T15:31:23;51144.97;;;-146.02;74.58
57000;BME280;42891;50.006;21.964;2023-12-29T15:35:24;51108.88;;;-146.02;74.78
57000;BME280;42891;50.006;21.964;2023-12-29T15:39:24;51134.94;;;-146.02;75.20
57000;BME280;42891;50.006;21.964;2023-12-29T15:43:24;51140.94;;;-146.02;75.30
57000;BME280;42891;50.006;21.964;2023-12-29T15:47:29;51163.00;;;-146.02;75.24
57000;BME280;42891;50.006;21.964;2023-12-29T15:51:29;51142.97;;;-146.02;75.20
57000;BME280;42891;50.006;21.964;2023-12-29T15:55:32;51128.94;;;-146.02;74.13
57000;BME280;42891;50.006;21.964;2023-12-29T15:59:35;51165.00;;;-146.02;74.16
57000;BME280;42891;50.006;21.964;2023-12-29T16:03:36;51158.97;;;-146.02;75.15
57000;BME280;42891;50.006;21.964;2023-12-29T16:07:36;51138.94;;;-146.02;74.74
57000;BME280;42891;50.006;21.964;2023-12-29T16:11:36;51146.97;;;-146.02;74.60
57000;BME280;42891;50.006;21.964;2023-12-29T16:15:37;51187.03;;;-146.02;74.99
57000;BME280;42891;50.006;21.964;2023-12-29T16:19:38;51167.00;;;-146.02;75.26
57000;BME280;42891;50.006;21.964;2023-12-29T16:23:39;51185.03;;;-146.02;75.07
57000;BME280;42891;50.006;21.964;2023-12-29T16:27:43;51140.94;;;-146.02;75.28
57000;BME280;42891;50.006;21.964;2023-12-29T16:31:43;51112.91;;;-146.02;75.01
57000;BME280;42891;50.006;21.964;2023-12-29T16:35:43;51150.97;;;-146.02;75.91
57000;BME280;42891;50.006;21.964;2023-12-29T16:39:44;51175.00;;;-146.02;75.79
57000;BME280;42891;50.006;21.964;2023-12-29T16:43:44;51158.97;;;-146.02;76.67
57000;BME280;42891;50.006;21.964;2023-12-29T16:47:44;51150.97;;;-146.02;76.91
57000;BME280;42891;50.006;21.964;2023-12-29T16:51:45;51146.97;;;-146.02;76.73
57000;BME280;42891;50.006;21.964;2023-12-29T16:55:45;51161.00;;;-146.02;76.53
57000;BME280;42891;50.006;21.964;2023-12-29T16:59:46;51175.00;;;-146.02;76.60
57000;BME280;42891;50.006;21.964;2023-12-29T17:03:46;51195.06;;;-146.02;77.38
57000;BME280;42891;50.006;21.964;2023-12-29T17:07:47;51177.03;;;-146.02;78.29
57000;BME280;42891;50.006;21.964;2023-12-29T17:11:48;51156.97;;;-146.02;78.44
57000;BME280;42891;50.006;21.964;2023-12-29T17:15:48;51130.94;;;-146.02;78.99
57000;BME280;42891;50.006;21.964;2023-12-29T17:19:48;51148.97;;;-146.02;78.82
57000;BME280;42891;50.006;21.964;2023-12-29T17:23:49;51152.97;;;-146.02;78.65
57000;BME280;42891;50.006;21.964;2023-12-29T17:27:49;51142.97;;;-146.02;78.39
57000;BME280;42891;50.006;21.964;2023-12-29T17:31:50;51136.94;;;-146.02;78.26
57000;BME280;42891;50.006;21.964;2023-12-29T17:35:50;51148.97;;;-146.02;78.40
57000;BME280;42891;50.006;21.964;2023-12-29T17:39:53;51152.97;;;-146.02;77.41
57000;BME280;42891;50.006;21.964;2023-12-29T17:43:53;51138.94;;;-146.02;77.08
57000;BME280;42891;50.006;21.964;2023-12-29T17:47:53;51161.00;;;-146.02;76.77
57000;BME280;42891;50.006;21.964;2023-12-29T17:51:54;51134.94;;;-146.02;76.56
57000;BME280;42891;50.006;21.964;2023-12-29T17:55:54;51177.03;;;-146.02;76.45
57000;BME280;42891;50.006;21.964;2023-12-29T17:59:54;51163.00;;;-146.02;76.01
57000;BME280;42891;50.006;21.964;2023-12-29T18:03:54;51142.97;;;-146.02;76.38
57000;BME280;42891;50.006;21.964;2023-12-29T18:07:55;51150.97;;;-146.02;76.86
57000;BME280;42891;50.006;21.964;2023-12-29T18:11:55;51110.91;;;-146.02;77.20
57000;BME280;42891;50.006;21.964;2023-12-29T18:15:55;51148.97;;;-146.02;77.33
57000;BME280;42891;50.006;21.964;2023-12-29T18:19:55;51161.00;;;-146.02;78.13
57000;BME280;42891;50.006;21.964;2023-12-29T18:23:57;51116.91;;;-146.02;78.97
57000;BME280;42891;50.006;21.964;2023-12-29T18:27:57;51173.00;;;-146.02;78.65
57000;BME280;42891;50.006;21.964;2023-12-29T18:31:57;51183.03;;;-146.02;78.87
57000;BME280;42891;50.006;21.964;2023-12-29T18:36:02;51144.97;;;-146.02;78.69
57000;BME280;42891;50.006;21.964;2023-12-29T18:40:02;51138.94;;;-146.02;78.82
57000;BME280;42891;50.006;21.964;2023-12-29T18:44:03;51136.94;;;-146.02;79.72
57000;BME280;42891;50.006;21.964;2023-12-29T18:48:04;51165.00;;;-146.02;79.68
57000;BME280;42891;50.006;21.964;2023-12-29T18:52:06;51154.97;;;-146.02;79.03
57000;BME280;42891;50.006;21.964;2023-12-29T18:56:07;51144.97;;;-146.02;79.03
57000;BME280;42891;50.006;21.964;2023-12-29T19:00:08;51161.00;;;-146.02;78.79
57000;BME280;42891;50.006;21.964;2023-12-29T19:04:08;51130.94;;;-146.02;78.75
57000;BME280;42891;50.006;21.964;2023-12-29T19:08:08;51152.97;;;-146.02;78.67
57000;BME280;42891;50.006;21.964;2023-12-29T19:12:08;51181.03;;;-146.02;78.27
57000;BME280;42891;50.006;21.964;2023-12-29T19:16:09;51130.94;;;-146.02;78.74
57000;BME280;42891;50.006;21.964;2023-12-29T19:20:18;51175.00;;;-146.02;78.11
57000;BME280;42891;50.006;21.964;2023-12-29T19:24:18;51146.97;;;-146.02;77.99
57000;BME280;42891;50.006;21.964;2023-12-29T19:28:18;51185.03;;;-146.02;77.79
57000;BME280;42891;50.006;21.964;2023-12-29T19:32:19;51189.03;;;-146.02;77.95
57000;BME280;42891;50.006;21.964;2023-12-29T19:36:19;51156.97;;;-146.02;77.49
57000;BME280;42891;50.006;21.964;2023-12-29T19:40:20;51189.03;;;-146.02;76.84
57000;BME280;42891;50.006;21.964;2023-12-29T19:44:20;51175.00;;;-146.02;77.29
57000;BME280;42891;50.006;21.964;2023-12-29T19:48:20;51171.00;;;-146.02;77.56
57000;BME280;42891;50.006;21.964;2023-12-29T19:52:22;51134.94;;;-146.02;77.84
57000;BME280;42891;50.006;21.964;2023-12-29T19:56:25;51152.97;;;-146.02;78.70
57000;BME280;42891;50.006;21.964;2023-12-29T20:00:26;51173.00;;;-146.02;78.68
57000;BME280;42891;50.006;21.964;2023-12-29T20:04:26;51177.03;;;-146.02;79.54
57000;BME280;42891;50.006;21.964;2023-12-29T20:08:26;51122.91;;;-146.02;79.61
57000;BME280;42891;50.006;21.964;2023-12-29T20:12:27;51136.94;;;-146.02;79.78
57000;BME280;42891;50.006;21.964;2023-12-29T20:16:28;51183.03;;;-146.02;78.95
57000;BME280;42891;50.006;21.964;2023-12-29T20:20:29;51146.97;;;-146.02;79.48
57000;BME280;42891;50.006;21.964;2023-12-29T20:24:29;51183.03;;;-146.02;80.00
57000;BME280;42891;50.006;21.964;2023-12-29T20:28:29;51175.00;;;-146.02;79.68
57000;BME280;42891;50.006;21.964;2023-12-29T20:32:34;51171.00;;;-146.02;79.45
57000;BME280;42891;50.006;21.964;2023-12-29T20:36:34;51179.03;;;-146.02;79.50
57000;BME280;42891;50.006;21.964;2023-12-29T20:40:34;51195.06;;;-146.02;79.98